CheckWX is a tool to help pilots better visualize weather data.  It is not intended as a substitute for an official pre-flight weather briefing.

21:55:16 UTC

KAIB METAR
Hopkins Field Airport
Nucla, Colorado, USA
Current

4 hours ago

KAIB 231735Z AUTO 00000KT 10SM CLR M05/M12 A3015 RMK AO2
Observed
Feb-23 @ 17:35 UTC
Visibility
10 SM
Flight Rules
VFR
Cloud Levels
  • Clear skies
Temperature
-5°C / 23°F
Dewpoint
-12°C / 10°F
Humidity
58%
Altimeter
30.15" Hg
Pressure
1021.02 hPa
Previous

5 hours ago

KAIB 231715Z AUTO 00000KT 10SM CLR M05/M11 A3015 RMK AO2
Observed
Feb-23 @ 17:15 UTC
Visibility
10 SM
Flight Rules
VFR
Cloud Levels
  • Clear skies
Temperature
-5°C / 23°F
Dewpoint
-11°C / 12°F
Humidity
63%
Altimeter
30.15" Hg
Pressure
1021.02 hPa
Previous

5 hours ago

KAIB 231655Z AUTO 00000KT 10SM CLR M06/M11 A3014 RMK AO2
Observed
Feb-23 @ 16:55 UTC
Visibility
10 SM
Flight Rules
VFR
Cloud Levels
  • Clear skies
Temperature
-6°C / 21°F
Dewpoint
-11°C / 12°F
Humidity
68%
Altimeter
30.14" Hg
Pressure
1020.62 hPa